sensor_id;sensor_type;location;lat;lon;timestamp;temperature;humidity
8231;DHT22;4156;50.908;6.974;2023-05-07T00:01:42;17.50;99.90
8231;DHT22;4156;50.908;6.974;2023-05-07T00:04:08;17.50;99.90
8231;DHT22;4156;50.908;6.974;2023-05-07T00:06:33;17.90;99.90
8231;DHT22;4156;50.908;6.974;2023-05-07T00:08:59;17.50;99.90
8231;DHT22;4156;50.908;6.974;2023-05-07T00:11:26;17.50;99.90
8231;DHT22;4156;50.908;6.974;2023-05-07T00:13:52;17.50;99.90
8231;DHT22;4156;50.908;6.974;2023-05-07T00:16:17;17.50;99.90
8231;DHT22;4156;50.908;6.974;2023-05-07T00:18:43;17.50;99.90
8231;DHT22;4156;50.908;6.974;2023-05-07T00:21:08;17.50;99.90
8231;DHT22;4156;50.908;6.974;2023-05-07T00:23:34;17.50;99.90
8231;DHT22;4156;50.908;6.974;2023-05-07T00:25:59;17.50;99.90
8231;DHT22;4156;50.908;6.974;2023-05-07T00:28:25;17.50;99.90
8231;DHT22;4156;50.908;6.974;2023-05-07T00:30:51;17.40;99.90
8231;DHT22;4156;50.908;6.974;2023-05-07T00:33:16;17.40;99.90
8231;DHT22;4156;50.908;6.974;2023-05-07T00:35:42;17.40;99.90
8231;DHT22;4156;50.908;6.974;2023-05-07T00:38:08;17.40;99.90
8231;DHT22;4156;50.908;6.974;2023-05-07T00:40:33;17.40;99.90
8231;DHT22;4156;50.908;6.974;2023-05-07T00:42:59;17.40;99.90
8231;DHT22;4156;50.908;6.974;2023-05-07T00:45:28;17.40;99.90
8231;DHT22;4156;50.908;6.974;2023-05-07T00:47:55;17.30;99.90
8231;DHT22;4156;50.908;6.974;2023-05-07T00:50:22;17.30;99.90
8231;DHT22;4156;50.908;6.974;2023-05-07T00:52:48;17.30;99.90
8231;DHT22;4156;50.908;6.974;2023-05-07T00:55:14;17.30;99.90
8231;DHT22;4156;50.908;6.974;2023-05-07T00:57:40;17.30;99.90
8231;DHT22;4156;50.908;6.974;2023-05-07T01:00:07;17.30;99.90
8231;DHT22;4156;50.908;6.974;2023-05-07T01:02:38;17.30;99.90
8231;DHT22;4156;50.908;6.974;2023-05-07T01:05:05;17.20;99.90
8231;DHT22;4156;50.908;6.974;2023-05-07T01:07:32;17.20;99.90
8231;DHT22;4156;50.908;6.974;2023-05-07T01:09:58;17.20;99.90
8231;DHT22;4156;50.908;6.974;2023-05-07T01:12:24;17.20;99.90
8231;DHT22;4156;50.908;6.974;2023-05-07T01:14:50;17.20;99.90
8231;DHT22;4156;50.908;6.974;2023-05-07T01:17:16;17.20;99.90
8231;DHT22;4156;50.908;6.974;2023-05-07T01:19:42;17.20;99.90
8231;DHT22;4156;50.908;6.974;2023-05-07T01:22:09;17.20;99.90
8231;DHT22;4156;50.908;6.974;2023-05-07T01:24:37;17.10;99.90
8231;DHT22;4156;50.908;6.974;2023-05-07T01:27:03;17.10;99.90
8231;DHT22;4156;50.908;6.974;2023-05-07T01:29:29;17.10;99.90
8231;DHT22;4156;50.908;6.974;2023-05-07T01:31:58;17.10;99.90
8231;DHT22;4156;50.908;6.974;2023-05-07T01:34:25;17.10;99.90
8231;DHT22;4156;50.908;6.974;2023-05-07T01:36:53;17.10;99.90
8231;DHT22;4156;50.908;6.974;2023-05-07T01:39:18;17.10;99.90
8231;DHT22;4156;50.908;6.974;2023-05-07T01:41:45;17.10;99.90
8231;DHT22;4156;50.908;6.974;2023-05-07T01:44:12;17.10;99.90
8231;DHT22;4156;50.908;6.974;2023-05-07T01:46:38;17.10;99.90
8231;DHT22;4156;50.908;6.974;2023-05-07T01:49:04;17.10;99.90
8231;DHT22;4156;50.908;6.974;2023-05-07T01:51:30;17.10;99.90
8231;DHT22;4156;50.908;6.974;2023-05-07T01:53:56;17.10;99.90
8231;DHT22;4156;50.908;6.974;2023-05-07T01:56:23;17.00;99.90
8231;DHT22;4156;50.908;6.974;2023-05-07T01:58:49;17.10;99.90
8231;DHT22;4156;50.908;6.974;2023-05-07T02:01:16;17.00;99.90
8231;DHT22;4156;50.908;6.974;2023-05-07T02:03:42;17.00;99.90
8231;DHT22;4156;50.908;6.974;2023-05-07T02:06:07;17.00;99.90
8231;DHT22;4156;50.908;6.974;2023-05-07T02:08:33;17.00;99.90
8231;DHT22;4156;50.908;6.974;2023-05-07T02:10:58;17.00;99.90
8231;DHT22;4156;50.908;6.974;2023-05-07T02:13:25;17.00;99.90
8231;DHT22;4156;50.908;6.974;2023-05-07T02:15:50;17.00;99.90
8231;DHT22;4156;50.908;6.974;2023-05-07T02:18:16;16.50;99.90
8231;DHT22;4156;50.908;6.974;2023-05-07T02:20:42;17.00;99.90
8231;DHT22;4156;50.908;6.974;2023-05-07T02:23:08;17.00;99.90
8231;DHT22;4156;50.908;6.974;2023-05-07T02:25:34;16.90;99.90
8231;DHT22;4156;50.908;6.974;2023-05-07T02:27:59;16.90;99.90
8231;DHT22;4156;50.908;6.974;2023-05-07T02:30:25;16.90;99.90
8231;DHT22;4156;50.908;6.974;2023-05-07T02:32:51;16.90;99.90
8231;DHT22;4156;50.908;6.974;2023-05-07T02:35:17;16.90;99.90
8231;DHT22;4156;50.908;6.974;2023-05-07T02:37:42;16.90;99.90
8231;DHT22;4156;50.908;6.974;2023-05-07T02:40:09;16.90;99.90
8231;DHT22;4156;50.908;6.974;2023-05-07T02:42:34;16.90;99.90
8231;DHT22;4156;50.908;6.974;2023-05-07T02:45:00;16.80;99.90
8231;DHT22;4156;50.908;6.974;2023-05-07T02:47:25;16.80;99.90
8231;DHT22;4156;50.908;6.974;2023-05-07T02:49:55;16.80;99.90
8231;DHT22;4156;50.908;6.974;2023-05-07T02:52:21;16.80;99.90
8231;DHT22;4156;50.908;6.974;2023-05-07T02:54:46;16.80;99.90
8231;DHT22;4156;50.908;6.974;2023-05-07T02:57:12;16.80;99.90
8231;DHT22;4156;50.908;6.974;2023-05-07T02:59:37;16.80;99.90
8231;DHT22;4156;50.908;6.974;2023-05-07T03:02:03;16.80;99.90
8231;DHT22;4156;50.908;6.974;2023-05-07T03:04:28;16.80;99.90
8231;DHT22;4156;50.908;6.974;2023-05-07T03:06:54;16.80;99.90
8231;DHT22;4156;50.908;6.974;2023-05-07T03:09:20;16.80;99.90
8231;DHT22;4156;50.908;6.974;2023-05-07T03:11:45;16.80;99.90
8231;DHT22;4156;50.908;6.974;2023-05-07T03:14:11;16.80;99.90
8231;DHT22;4156;50.908;6.974;2023-05-07T03:16:38;16.80;99.90
8231;DHT22;4156;50.908;6.974;2023-05-07T03:19:03;16.70;99.90
8231;DHT22;4156;50.908;6.974;2023-05-07T03:21:29;16.80;99.90
8231;DHT22;4156;50.908;6.974;2023-05-07T03:23:55;16.70;99.90
8231;DHT22;4156;50.908;6.974;2023-05-07T03:26:21;16.70;99.90
8231;DHT22;4156;50.908;6.974;2023-05-07T03:28:47;16.70;99.90
8231;DHT22;4156;50.908;6.974;2023-05-07T03:31:13;16.70;99.90
8231;DHT22;4156;50.908;6.974;2023-05-07T03:33:56;16.70;99.90
8231;DHT22;4156;50.908;6.974;2023-05-07T03:36:22;16.70;99.90
8231;DHT22;4156;50.908;6.974;2023-05-07T03:38:49;16.70;99.90
8231;DHT22;4156;50.908;6.974;2023-05-07T03:41:15;16.70;99.90
8231;DHT22;4156;50.908;6.974;2023-05-07T03:43:40;16.70;99.90
8231;DHT22;4156;50.908;6.974;2023-05-07T03:46:06;16.70;99.90
8231;DHT22;4156;50.908;6.974;2023-05-07T03:48:32;16.70;99.90
8231;DHT22;4156;50.908;6.974;2023-05-07T03:50:57;16.60;99.90
8231;DHT22;4156;50.908;6.974;2023-05-07T03:53:23;16.60;99.90
8231;DHT22;4156;50.908;6.974;2023-05-07T03:55:48;16.60;99.90
8231;DHT22;4156;50.908;6.974;2023-05-07T03:58:15;16.60;99.90
8231;DHT22;4156;50.908;6.974;2023-05-07T04:00:40;16.60;99.90
8231;DHT22;4156;50.908;6.974;2023-05-07T04:03:06;16.60;99.90
8231;DHT22;4156;50.908;6.974;2023-05-07T04:05:32;16.60;99.90
8231;DHT22;4156;50.908;6.974;2023-05-07T04:07:58;16.60;99.90
8231;DHT22;4156;50.908;6.974;2023-05-07T04:10:23;16.60;99.90
8231;DHT22;4156;50.908;6.974;2023-05-07T04:12:49;16.60;99.90
8231;DHT22;4156;50.908;6.974;2023-05-07T04:15:15;16.60;99.90
8231;DHT22;4156;50.908;6.974;2023-05-07T04:17:40;16.60;99.90
8231;DHT22;4156;50.908;6.974;2023-05-07T04:20:09;16.60;99.90
8231;DHT22;4156;50.908;6.974;2023-05-07T04:22:35;16.50;99.90
8231;DHT22;4156;50.908;6.974;2023-05-07T04:25:01;16.60;99.90
8231;DHT22;4156;50.908;6.974;2023-05-07T04:27:27;16.60;99.90
8231;DHT22;4156;50.908;6.974;2023-05-07T04:29:53;16.60;99.90
8231;DHT22;4156;50.908;6.974;2023-05-07T04:32:21;16.60;99.90
8231;DHT22;4156;50.908;6.974;2023-05-07T04:34:46;16.50;99.90
8231;DHT22;4156;50.908;6.974;2023-05-07T04:37:12;16.50;99.90
8231;DHT22;4156;50.908;6.974;2023-05-07T04:39:37;16.60;99.90
8231;DHT22;4156;50.908;6.974;2023-05-07T04:42:03;16.60;99.90
8231;DHT22;4156;50.908;6.974;2023-05-07T04:44:28;16.60;99.90
8231;DHT22;4156;50.908;6.974;2023-05-07T04:46:56;16.60;99.90
8231;DHT22;4156;50.908;6.974;2023-05-07T04:49:22;16.60;99.90
8231;DHT22;4156;50.908;6.974;2023-05-07T04:51:47;16.60;99.90
8231;DHT22;4156;50.908;6.974;2023-05-07T04:54:13;16.60;99.90
8231;DHT22;4156;50.908;6.974;2023-05-07T04:56:38;16.60;99.90
8231;DHT22;4156;50.908;6.974;2023-05-07T04:59:04;16.60;99.90
8231;DHT22;4156;50.908;6.974;2023-05-07T05:01:29;16.60;99.90
8231;DHT22;4156;50.908;6.974;2023-05-07T05:03:55;16.60;99.90
8231;DHT22;4156;50.908;6.974;2023-05-07T05:06:20;16.60;99.90
8231;DHT22;4156;50.908;6.974;2023-05-07T05:08:46;16.60;99.90
8231;DHT22;4156;50.908;6.974;2023-05-07T05:11:11;16.50;99.90
8231;DHT22;4156;50.908;6.974;2023-05-07T05:13:37;16.50;99.90
8231;DHT22;4156;50.908;6.974;2023-05-07T05:16:03;16.50;99.90
8231;DHT22;4156;50.908;6.974;2023-05-07T05:18:28;16.50;99.90
8231;DHT22;4156;50.908;6.974;2023-05-07T05:20:54;16.50;99.90
8231;DHT22;4156;50.908;6.974;2023-05-07T05:23:19;16.50;99.90
8231;DHT22;4156;50.908;6.974;2023-05-07T05:25:45;16.50;99.90
8231;DHT22;4156;50.908;6.974;2023-05-07T05:28:11;16.50;99.90
8231;DHT22;4156;50.908;6.974;2023-05-07T05:30:36;16.50;99.90
8231;DHT22;4156;50.908;6.974;2023-05-07T05:33:02;16.50;99.90
8231;DHT22;4156;50.908;6.974;2023-05-07T05:35:27;16.60;99.90
8231;DHT22;4156;50.908;6.974;2023-05-07T05:37:53;16.60;99.90
8231;DHT22;4156;50.908;6.974;2023-05-07T05:40:18;16.60;99.90
8231;DHT22;4156;50.908;6.974;2023-05-07T05:42:44;16.60;99.90
8231;DHT22;4156;50.908;6.974;2023-05-07T05:45:10;16.60;99.90
8231;DHT22;4156;50.908;6.974;2023-05-07T05:47:35;16.60;99.90
8231;DHT22;4156;50.908;6.974;2023-05-07T05:50:01;16.70;99.90
8231;DHT22;4156;50.908;6.974;2023-05-07T05:52:26;16.70;99.90
8231;DHT22;4156;50.908;6.974;2023-05-07T05:54:53;16.70;99.90
8231;DHT22;4156;50.908;6.974;2023-05-07T05:57:18;16.70;99.90
8231;DHT22;4156;50.908;6.974;2023-05-07T05:59:44;16.70;99.90
8231;DHT22;4156;50.908;6.974;2023-05-07T06:02:10;16.70;99.90
8231;DHT22;4156;50.908;6.974;2023-05-07T06:04:35;16.70;99.90
8231;DHT22;4156;50.908;6.974;2023-05-07T06:07:01;16.70;99.90
8231;DHT22;4156;50.908;6.974;2023-05-07T06:09:26;16.70;99.90
8231;DHT22;4156;50.908;6.974;2023-05-07T06:11:52;16.70;99.90
8231;DHT22;4156;50.908;6.974;2023-05-07T06:14:17;16.70;99.90
8231;DHT22;4156;50.908;6.974;2023-05-07T06:16:43;16.70;99.90
8231;DHT22;4156;50.908;6.974;2023-05-07T06:19:09;16.70;99.90
8231;DHT22;4156;50.908;6.974;2023-05-07T06:21:35;16.70;99.90
8231;DHT22;4156;50.908;6.974;2023-05-07T06:24:00;16.80;99.90
8231;DHT22;4156;50.908;6.974;2023-05-07T06:26:26;16.80;99.90
8231;DHT22;4156;50.908;6.974;2023-05-07T06:28:51;16.80;99.90
8231;DHT22;4156;50.908;6.974;2023-05-07T06:31:18;16.80;99.90
8231;DHT22;4156;50.908;6.974;2023-05-07T06:33:46;16.90;99.90
8231;DHT22;4156;50.908;6.974;2023-05-07T06:36:12;16.80;99.90
8231;DHT22;4156;50.908;6.974;2023-05-07T06:38:37;16.80;99.90
8231;DHT22;4156;50.908;6.974;2023-05-07T06:41:03;16.90;99.90
8231;DHT22;4156;50.908;6.974;2023-05-07T06:43:28;16.90;99.90
8231;DHT22;4156;50.908;6.974;2023-05-07T06:45:54;16.90;99.90
8231;DHT22;4156;50.908;6.974;2023-05-07T06:48:20;16.90;99.90
8231;DHT22;4156;50.908;6.974;2023-05-07T06:50:45;16.90;99.90
8231;DHT22;4156;50.908;6.974;2023-05-07T06:53:11;16.90;99.90
8231;DHT22;4156;50.908;6.974;2023-05-07T06:55:36;16.90;99.90
8231;DHT22;4156;50.908;6.974;2023-05-07T06:58:03;17.00;99.90
8231;DHT22;4156;50.908;6.974;2023-05-07T07:00:29;17.00;99.90
8231;DHT22;4156;50.908;6.974;2023-05-07T07:02:55;17.00;99.90
8231;DHT22;4156;50.908;6.974;2023-05-07T07:05:20;17.00;99.90
8231;DHT22;4156;50.908;6.974;2023-05-07T07:07:46;17.10;99.90
8231;DHT22;4156;50.908;6.974;2023-05-07T07:10:22;17.10;99.90
8231;DHT22;4156;50.908;6.974;2023-05-07T07:12:48;17.10;99.90
8231;DHT22;4156;50.908;6.974;2023-05-07T07:15:14;17.10;99.90
8231;DHT22;4156;50.908;6.974;2023-05-07T07:17:40;17.20;99.90
8231;DHT22;4156;50.908;6.974;2023-05-07T07:20:06;17.20;99.90
8231;DHT22;4156;50.908;6.974;2023-05-07T07:22:32;17.20;99.90
8231;DHT22;4156;50.908;6.974;2023-05-07T07:24:57;17.20;99.90
8231;DHT22;4156;50.908;6.974;2023-05-07T07:27:23;17.20;99.90
8231;DHT22;4156;50.908;6.974;2023-05-07T07:29:48;17.20;99.90
8231;DHT22;4156;50.908;6.974;2023-05-07T07:32:14;17.30;99.90
8231;DHT22;4156;50.908;6.974;2023-05-07T07:34:40;17.40;99.90
8231;DHT22;4156;50.908;6.974;2023-05-07T07:37:05;17.40;99.90
8231;DHT22;4156;50.908;6.974;2023-05-07T07:39:35;17.50;99.90
8231;DHT22;4156;50.908;6.974;2023-05-07T07:42:02;17.50;99.90
8231;DHT22;4156;50.908;6.974;2023-05-07T07:44:28;17.50;99.90
8231;DHT22;4156;50.908;6.974;2023-05-07T07:46:53;17.50;99.90
8231;DHT22;4156;50.908;6.974;2023-05-07T07:49:19;17.50;99.90
8231;DHT22;4156;50.908;6.974;2023-05-07T07:51:45;17.60;99.90
8231;DHT22;4156;50.908;6.974;2023-05-07T07:54:10;17.50;99.90
8231;DHT22;4156;50.908;6.974;2023-05-07T07:56:36;17.60;99.90
8231;DHT22;4156;50.908;6.974;2023-05-07T07:59:02;17.60;99.90
8231;DHT22;4156;50.908;6.974;2023-05-07T08:01:29;17.60;99.90
8231;DHT22;4156;50.908;6.974;2023-05-07T08:03:55;17.60;99.90
8231;DHT22;4156;50.908;6.974;2023-05-07T08:06:21;17.60;99.90
8231;DHT22;4156;50.908;6.974;2023-05-07T08:08:46;17.60;99.90
8231;DHT22;4156;50.908;6.974;2023-05-07T08:11:12;17.60;99.90
8231;DHT22;4156;50.908;6.974;2023-05-07T08:13:38;17.60;99.90
8231;DHT22;4156;50.908;6.974;2023-05-07T08:16:04;17.60;99.90
8231;DHT22;4156;50.908;6.974;2023-05-07T08:18:30;17.70;99.90
8231;DHT22;4156;50.908;6.974;2023-05-07T08:20:55;17.60;99.90
8231;DHT22;4156;50.908;6.974;2023-05-07T08:23:21;17.70;99.90
8231;DHT22;4156;50.908;6.974;2023-05-07T08:25:48;17.60;99.90
8231;DHT22;4156;50.908;6.974;2023-05-07T08:28:14;17.70;99.90
8231;DHT22;4156;50.908;6.974;2023-05-07T08:30:40;17.70;99.90
8231;DHT22;4156;50.908;6.974;2023-05-07T08:33:06;17.70;99.90
8231;DHT22;4156;50.908;6.974;2023-05-07T08:35:31;17.70;99.90
8231;DHT22;4156;50.908;6.974;2023-05-07T08:37:57;17.70;99.90
8231;DHT22;4156;50.908;6.974;2023-05-07T08:40:25;17.70;99.90
8231;DHT22;4156;50.908;6.974;2023-05-07T08:42:52;17.80;99.90
8231;DHT22;4156;50.908;6.974;2023-05-07T08:45:19;17.80;99.90
8231;DHT22;4156;50.908;6.974;2023-05-07T08:47:47;17.80;99.90
8231;DHT22;4156;50.908;6.974;2023-05-07T08:50:15;17.80;99.90
8231;DHT22;4156;50.908;6.974;2023-05-07T08:52:41;17.80;99.90
8231;DHT22;4156;50.908;6.974;2023-05-07T08:55:09;17.80;99.90
8231;DHT22;4156;50.908;6.974;2023-05-07T08:57:35;17.80;99.90
8231;DHT22;4156;50.908;6.974;2023-05-07T09:00:02;17.90;99.90
8231;DHT22;4156;50.908;6.974;2023-05-07T09:02:28;17.90;99.90
8231;DHT22;4156;50.908;6.974;2023-05-07T09:04:54;17.90;99.90
8231;DHT22;4156;50.908;6.974;2023-05-07T09:07:20;17.90;99.90
8231;DHT22;4156;50.908;6.974;2023-05-07T09:09:46;18.00;99.90
8231;DHT22;4156;50.908;6.974;2023-05-07T09:12:12;18.00;99.90
8231;DHT22;4156;50.908;6.974;2023-05-07T09:14:38;18.00;99.90
8231;DHT22;4156;50.908;6.974;2023-05-07T09:17:04;18.00;99.90
8231;DHT22;4156;50.908;6.974;2023-05-07T09:19:30;18.00;99.90
8231;DHT22;4156;50.908;6.974;2023-05-07T09:22:03;18.10;99.90
8231;DHT22;4156;50.908;6.974;2023-05-07T09:24:29;18.10;99.90
8231;DHT22;4156;50.908;6.974;2023-05-07T09:26:59;18.10;99.90
8231;DHT22;4156;50.908;6.974;2023-05-07T09:29:26;18.20;99.90
8231;DHT22;4156;50.908;6.974;2023-05-07T09:31:54;18.30;99.90
8231;DHT22;4156;50.908;6.974;2023-05-07T09:34:20;18.30;99.90
8231;DHT22;4156;50.908;6.974;2023-05-07T09:36:45;18.40;99.90
8231;DHT22;4156;50.908;6.974;2023-05-07T09:39:11;18.30;99.90
8231;DHT22;4156;50.908;6.974;2023-05-07T09:41:46;18.40;99.90
8231;DHT22;4156;50.908;6.974;2023-05-07T09:44:13;18.40;99.90
8231;DHT22;4156;50.908;6.974;2023-05-07T09:46:42;18.50;99.90
8231;DHT22;4156;50.908;6.974;2023-05-07T09:49:12;18.50;99.90
8231;DHT22;4156;50.908;6.974;2023-05-07T09:51:48;18.50;99.90
8231;DHT22;4156;50.908;6.974;2023-05-07T09:54:15;18.50;99.90
8231;DHT22;4156;50.908;6.974;2023-05-07T09:56:40;18.60;99.90
8231;DHT22;4156;50.908;6.974;2023-05-07T09:59:08;18.60;99.90
8231;DHT22;4156;50.908;6.974;2023-05-07T10:01:36;18.60;99.90
8231;DHT22;4156;50.908;6.974;2023-05-07T10:04:02;18.60;99.90
8231;DHT22;4156;50.908;6.974;2023-05-07T10:06:30;18.60;99.90
8231;DHT22;4156;50.908;6.974;2023-05-07T10:08:55;18.60;99.90
8231;DHT22;4156;50.908;6.974;2023-05-07T10:11:22;18.60;99.90
8231;DHT22;4156;50.908;6.974;2023-05-07T10:13:48;18.70;99.90
8231;DHT22;4156;50.908;6.974;2023-05-07T10:16:14;18.70;99.90
8231;DHT22;4156;50.908;6.974;2023-05-07T10:18:40;18.70;99.90
8231;DHT22;4156;50.908;6.974;2023-05-07T10:21:07;18.80;99.90
8231;DHT22;4156;50.908;6.974;2023-05-07T10:23:34;18.80;99.90
8231;DHT22;4156;50.908;6.974;2023-05-07T10:26:03;18.80;99.90
8231;DHT22;4156;50.908;6.974;2023-05-07T10:28:32;18.80;99.90
8231;DHT22;4156;50.908;6.974;2023-05-07T10:31:23;18.80;99.90
8231;DHT22;4156;50.908;6.974;2023-05-07T10:33:54;18.90;99.90
8231;DHT22;4156;50.908;6.974;2023-05-07T10:36:21;18.90;99.90
8231;DHT22;4156;50.908;6.974;2023-05-07T10:38:47;18.90;99.90
8231;DHT22;4156;50.908;6.974;2023-05-07T10:41:13;19.00;99.90
8231;DHT22;4156;50.908;6.974;2023-05-07T10:43:43;19.00;99.90
8231;DHT22;4156;50.908;6.974;2023-05-07T10:51:32;19.10;99.90
8231;DHT22;4156;50.908;6.974;2023-05-07T10:54:18;19.10;99.90
8231;DHT22;4156;50.908;6.974;2023-05-07T10:56:44;19.10;99.90
8231;DHT22;4156;50.908;6.974;2023-05-07T11:01:53;19.20;99.90
8231;DHT22;4156;50.908;6.974;2023-05-07T11:04:19;19.20;99.90
8231;DHT22;4156;50.908;6.974;2023-05-07T11:15:10;19.30;99.90
8231;DHT22;4156;50.908;6.974;2023-05-07T11:17:59;19.40;99.90
8231;DHT22;4156;50.908;6.974;2023-05-07T11:20:57;19.50;99.90
8231;DHT22;4156;50.908;6.974;2023-05-07T11:26:09;19.50;99.90
8231;DHT22;4156;50.908;6.974;2023-05-07T11:28:42;19.50;99.90
8231;DHT22;4156;50.908;6.974;2023-05-07T11:31:09;19.50;99.90
8231;DHT22;4156;50.908;6.974;2023-05-07T11:33:35;19.50;99.90
8231;DHT22;4156;50.908;6.974;2023-05-07T11:36:02;19.50;99.90
8231;DHT22;4156;50.908;6.974;2023-05-07T11:38:35;19.60;99.90
8231;DHT22;4156;50.908;6.974;2023-05-07T11:41:01;19.60;99.90
8231;DHT22;4156;50.908;6.974;2023-05-07T11:43:28;19.70;99.90
8231;DHT22;4156;50.908;6.974;2023-05-07T11:45:53;19.60;99.90
8231;DHT22;4156;50.908;6.974;2023-05-07T11:48:21;19.70;99.90
8231;DHT22;4156;50.908;6.974;2023-05-07T11:50:54;19.70;99.90
8231;DHT22;4156;50.908;6.974;2023-05-07T11:53:25;19.70;99.90
8231;DHT22;4156;50.908;6.974;2023-05-07T11:55:58;19.70;99.90
8231;DHT22;4156;50.908;6.974;2023-05-07T11:58:24;19.80;99.90
8231;DHT22;4156;50.908;6.974;2023-05-07T12:00:53;19.80;99.90
8231;DHT22;4156;50.908;6.974;2023-05-07T12:03:20;19.80;99.90
8231;DHT22;4156;50.908;6.974;2023-05-07T12:05:46;19.90;99.90
8231;DHT22;4156;50.908;6.974;2023-05-07T12:08:19;19.90;99.90
8231;DHT22;4156;50.908;6.974;2023-05-07T12:10:46;20.00;99.90
8231;DHT22;4156;50.908;6.974;2023-05-07T12:13:22;19.90;99.90
8231;DHT22;4156;50.908;6.974;2023-05-07T12:15:55;19.90;99.90
8231;DHT22;4156;50.908;6.974;2023-05-07T12:18:22;19.90;99.90
8231;DHT22;4156;50.908;6.974;2023-05-07T12:20:48;19.90;99.90
8231;DHT22;4156;50.908;6.974;2023-05-07T12:23:14;19.90;99.90
8231;DHT22;4156;50.908;6.974;2023-05-07T12:25:42;19.90;99.90
8231;DHT22;4156;50.908;6.974;2023-05-07T12:28:14;20.00;99.90
8231;DHT22;4156;50.908;6.974;2023-05-07T12:30:47;20.00;99.90
8231;DHT22;4156;50.908;6.974;2023-05-07T12:33:17;20.00;99.90
8231;DHT22;4156;50.908;6.974;2023-05-07T12:35:43;20.00;99.90
8231;DHT22;4156;50.908;6.974;2023-05-07T12:38:10;20.10;99.90
8231;DHT22;4156;50.908;6.974;2023-05-07T12:40:38;20.00;99.90
8231;DHT22;4156;50.908;6.974;2023-05-07T12:43:03;20.00;99.90
8231;DHT22;4156;50.908;6.974;2023-05-07T12:45:29;20.10;99.90
8231;DHT22;4156;50.908;6.974;2023-05-07T12:47:55;20.00;99.90
8231;DHT22;4156;50.908;6.974;2023-05-07T12:50:20;20.10;99.90
8231;DHT22;4156;50.908;6.974;2023-05-07T12:52:47;20.10;99.90
8231;DHT22;4156;50.908;6.974;2023-05-07T12:55:17;20.10;99.90
8231;DHT22;4156;50.908;6.974;2023-05-07T12:57:45;20.00;99.90
8231;DHT22;4156;50.908;6.974;2023-05-07T13:00:13;20.10;99.90
8231;DHT22;4156;50.908;6.974;2023-05-07T13:02:40;20.10;99.90
8231;DHT22;4156;50.908;6.974;2023-05-07T13:05:06;20.00;99.90
8231;DHT22;4156;50.908;6.974;2023-05-07T13:07:32;20.10;99.90
8231;DHT22;4156;50.908;6.974;2023-05-07T13:09:58;20.10;99.90
8231;DHT22;4156;50.908;6.974;2023-05-07T13:12:23;20.10;99.90
8231;DHT22;4156;50.908;6.974;2023-05-07T13:14:49;20.10;99.90
8231;DHT22;4156;50.908;6.974;2023-05-07T13:17:14;20.10;99.90
8231;DHT22;4156;50.908;6.974;2023-05-07T13:19:40;20.10;99.90
8231;DHT22;4156;50.908;6.974;2023-05-07T13:22:05;20.20;99.90
8231;DHT22;4156;50.908;6.974;2023-05-07T13:24:31;20.20;99.90
8231;DHT22;4156;50.908;6.974;2023-05-07T13:26:56;20.20;99.90
8231;DHT22;4156;50.908;6.974;2023-05-07T13:29:22;20.20;99.90
8231;DHT22;4156;50.908;6.974;2023-05-07T13:31:54;20.20;99.90
8231;DHT22;4156;50.908;6.974;2023-05-07T13:34:19;20.20;99.90
8231;DHT22;4156;50.908;6.974;2023-05-07T13:36:45;20.30;99.90
8231;DHT22;4156;50.908;6.974;2023-05-07T13:39:11;20.30;99.90
8231;DHT22;4156;50.908;6.974;2023-05-07T13:41:36;20.30;99.90
8231;DHT22;4156;50.908;6.974;2023-05-07T13:44:02;20.30;99.90
8231;DHT22;4156;50.908;6.974;2023-05-07T13:46:27;20.30;99.90
8231;DHT22;4156;50.908;6.974;2023-05-07T13:48:53;20.30;99.90
8231;DHT22;4156;50.908;6.974;2023-05-07T13:51:18;20.40;99.90
8231;DHT22;4156;50.908;6.974;2023-05-07T13:53:44;20.40;99.90
8231;DHT22;4156;50.908;6.974;2023-05-07T13:56:09;20.40;99.90
8231;DHT22;4156;50.908;6.974;2023-05-07T13:58:36;20.40;99.90
8231;DHT22;4156;50.908;6.974;2023-05-07T14:01:01;20.50;99.90
8231;DHT22;4156;50.908;6.974;2023-05-07T14:03:27;20.50;99.90
8231;DHT22;4156;50.908;6.974;2023-05-07T14:05:52;20.50;99.90
8231;DHT22;4156;50.908;6.974;2023-05-07T14:08:18;20.50;99.90
8231;DHT22;4156;50.908;6.974;2023-05-07T14:10:45;20.50;99.90
8231;DHT22;4156;50.908;6.974;2023-05-07T14:13:11;20.50;99.90
8231;DHT22;4156;50.908;6.974;2023-05-07T14:15:37;20.60;99.90
8231;DHT22;4156;50.908;6.974;2023-05-07T14:18:03;20.60;99.90
8231;DHT22;4156;50.908;6.974;2023-05-07T14:20:28;20.60;99.90
8231;DHT22;4156;50.908;6.974;2023-05-07T14:22:55;20.60;99.90
8231;DHT22;4156;50.908;6.974;2023-05-07T14:25:21;20.60;99.90
8231;DHT22;4156;50.908;6.974;2023-05-07T14:27:46;20.60;99.90
8231;DHT22;4156;50.908;6.974;2023-05-07T14:30:12;20.70;99.90
8231;DHT22;4156;50.908;6.974;2023-05-07T14:32:38;20.70;99.90
8231;DHT22;4156;50.908;6.974;2023-05-07T14:35:04;20.70;99.90
8231;DHT22;4156;50.908;6.974;2023-05-07T14:37:29;20.70;99.90
8231;DHT22;4156;50.908;6.974;2023-05-07T14:39:55;20.70;99.90
8231;DHT22;4156;50.908;6.974;2023-05-07T14:42:21;20.70;99.90
8231;DHT22;4156;50.908;6.974;2023-05-07T14:44:46;20.70;99.90
8231;DHT22;4156;50.908;6.974;2023-05-07T14:47:13;20.80;99.90
8231;DHT22;4156;50.908;6.974;2023-05-07T14:49:39;20.80;99.90
8231;DHT22;4156;50.908;6.974;2023-05-07T14:52:05;20.80;99.90
8231;DHT22;4156;50.908;6.974;2023-05-07T14:54:34;20.80;99.90
8231;DHT22;4156;50.908;6.974;2023-05-07T14:57:01;20.80;99.90
8231;DHT22;4156;50.908;6.974;2023-05-07T14:59:26;20.90;99.90
8231;DHT22;4156;50.908;6.974;2023-05-07T15:01:52;20.90;99.90
8231;DHT22;4156;50.908;6.974;2023-05-07T15:04:17;20.60;99.90
8231;DHT22;4156;50.908;6.974;2023-05-07T15:06:43;20.30;99.90
8231;DHT22;4156;50.908;6.974;2023-05-07T15:09:09;20.20;99.90
8231;DHT22;4156;50.908;6.974;2023-05-07T15:11:34;20.10;99.90
8231;DHT22;4156;50.908;6.974;2023-05-07T15:14:00;20.00;99.90
8231;DHT22;4156;50.908;6.974;2023-05-07T15:16:25;19.90;99.90
8231;DHT22;4156;50.908;6.974;2023-05-07T15:18:51;19.70;99.90
8231;DHT22;4156;50.908;6.974;2023-05-07T15:21:16;19.60;99.90
8231;DHT22;4156;50.908;6.974;2023-05-07T15:23:42;19.50;99.90
8231;DHT22;4156;50.908;6.974;2023-05-07T15:26:16;19.50;99.90
8231;DHT22;4156;50.908;6.974;2023-05-07T15:28:45;19.50;99.90
8231;DHT22;4156;50.908;6.974;2023-05-07T15:31:15;19.40;99.90
8231;DHT22;4156;50.908;6.974;2023-05-07T15:33:41;19.40;99.90
8231;DHT22;4156;50.908;6.974;2023-05-07T15:36:09;19.40;99.90
8231;DHT22;4156;50.908;6.974;2023-05-07T15:38:35;19.40;99.90
8231;DHT22;4156;50.908;6.974;2023-05-07T15:41:00;19.40;99.90
8231;DHT22;4156;50.908;6.974;2023-05-07T15:43:46;19.40;99.90
8231;DHT22;4156;50.908;6.974;2023-05-07T15:46:30;19.40;99.90
8231;DHT22;4156;50.908;6.974;2023-05-07T15:49:06;19.30;99.90
8231;DHT22;4156;50.908;6.974;2023-05-07T15:51:37;19.30;99.90
8231;DHT22;4156;50.908;6.974;2023-05-07T15:54:08;19.40;99.90
8231;DHT22;4156;50.908;6.974;2023-05-07T15:57:01;19.40;99.90
8231;DHT22;4156;50.908;6.974;2023-05-07T15:59:31;19.30;99.90
8231;DHT22;4156;50.908;6.974;2023-05-07T16:02:36;19.20;99.90
8231;DHT22;4156;50.908;6.974;2023-05-07T16:05:25;18.90;99.90
8231;DHT22;4156;50.908;6.974;2023-05-07T16:08:20;19.00;99.90
8231;DHT22;4156;50.908;6.974;2023-05-07T16:11:02;19.10;99.90
8231;DHT22;4156;50.908;6.974;2023-05-07T16:20:15;19.30;99.90
8231;DHT22;4156;50.908;6.974;2023-05-07T16:22:50;19.30;99.90
8231;DHT22;4156;50.908;6.974;2023-05-07T16:25:46;19.30;99.90
8231;DHT22;4156;50.908;6.974;2023-05-07T16:28:28;19.30;99.90